sensor_id;sensor_type;location;lat;lon;timestamp;pressure;altitude;pressure_sealevel;temperature;humidity
8398;BME280;4236;54.504;9.588;2023-09-07T01:51:51;102416.38;;;17.75;100.00
8398;BME280;4236;54.504;9.588;2023-09-07T01:54:17;102428.84;;;17.76;100.00
8398;BME280;4236;54.504;9.588;2023-09-07T01:56:43;102424.47;;;17.75;100.00
8398;BME280;4236;54.504;9.588;2023-09-07T01:59:10;102420.13;;;17.74;100.00
8398;BME280;4236;54.504;9.588;2023-09-07T02:01:36;102425.13;;;17.77;100.00
8398;BME280;4236;54.504;9.588;2023-09-07T02:04:05;102425.53;;;17.74;100.00
8398;BME280;4236;54.504;9.588;2023-09-07T02:06:31;102426.56;;;17.73;100.00
8398;BME280;4236;54.504;9.588;2023-09-07T02:14:01;102437.97;;;17.68;100.00
8398;BME280;4236;54.504;9.588;2023-09-07T02:16:28;102439.41;;;17.64;100.00
8398;BME280;4236;54.504;9.588;2023-09-07T02:19:01;102443.78;;;17.65;100.00
8398;BME280;4236;54.504;9.588;2023-09-07T02:21:28;102435.84;;;17.63;100.00
8398;BME280;4236;54.504;9.588;2023-09-07T02:23:54;102439.19;;;17.59;100.00
8398;BME280;4236;54.504;9.588;2023-09-07T02:26:20;102433.56;;;17.60;100.00
8398;BME280;4236;54.504;9.588;2023-09-07T02:28:47;102435.44;;;17.60;100.00
8398;BME280;4236;54.504;9.588;2023-09-07T02:33:57;102435.81;;;17.57;100.00
8398;BME280;4236;54.504;9.588;2023-09-07T02:36:23;102437.69;;;17.56;100.00
8398;BME280;4236;54.504;9.588;2023-09-07T02:38:50;102444.28;;;17.54;100.00
8398;BME280;4236;54.504;9.588;2023-09-07T02:41:16;102442.47;;;17.54;100.00
8398;BME280;4236;54.504;9.588;2023-09-07T02:43:42;102433.72;;;17.52;100.00
8398;BME280;4236;54.504;9.588;2023-09-07T02:46:09;102440.13;;;17.51;100.00
8398;BME280;4236;54.504;9.588;2023-09-07T02:48:36;102434.97;;;17.50;100.00
8398;BME280;4236;54.504;9.588;2023-09-07T02:51:03;102441.38;;;17.49;100.00
8398;BME280;4236;54.504;9.588;2023-09-07T02:57:38;102441.16;;;17.44;100.00
8398;BME280;4236;54.504;9.588;2023-09-07T03:00:06;102444.88;;;17.43;100.00
8398;BME280;4236;54.504;9.588;2023-09-07T03:02:36;102440.50;;;17.42;100.00
8398;BME280;4236;54.504;9.588;2023-09-07T03:05:03;102444.25;;;17.41;100.00
8398;BME280;4236;54.504;9.588;2023-09-07T03:07:33;102445.47;;;17.38;100.00
8398;BME280;4236;54.504;9.588;2023-09-07T03:09:59;102450.84;;;17.38;100.00
8398;BME280;4236;54.504;9.588;2023-09-07T03:12:27;102441.13;;;17.37;100.00
8398;BME280;4236;54.504;9.588;2023-09-07T03:14:57;102443.16;;;17.35;100.00
8398;BME280;4236;54.504;9.588;2023-09-07T03:17:24;102446.69;;;17.36;100.00
8398;BME280;4236;54.504;9.588;2023-09-07T03:19:52;102448.56;;;17.35;100.00
8398;BME280;4236;54.504;9.588;2023-09-07T03:22:20;102451.47;;;17.34;100.00
8398;BME280;4236;54.504;9.588;2023-09-07T03:24:49;102453.16;;;17.35;100.00
8398;BME280;4236;54.504;9.588;2023-09-07T03:27:17;102453.94;;;17.35;100.00
8398;BME280;4236;54.504;9.588;2023-09-07T03:29:44;102444.84;;;17.36;100.00
8398;BME280;4236;54.504;9.588;2023-09-07T03:32:13;102450.22;;;17.36;100.00
8398;BME280;4236;54.504;9.588;2023-09-07T03:34:41;102451.06;;;17.37;100.00
8398;BME280;4236;54.504;9.588;2023-09-07T03:37:09;102451.06;;;17.37;100.00
8398;BME280;4236;54.504;9.588;2023-09-07T03:39:38;102444.00;;;17.36;100.00
8398;BME280;4236;54.504;9.588;2023-09-07T03:42:06;102447.75;;;17.35;100.00
8398;BME280;4236;54.504;9.588;2023-09-07T03:44:33;102451.69;;;17.32;100.00
8398;BME280;4236;54.504;9.588;2023-09-07T03:47:02;102455.41;;;17.31;100.00
8398;BME280;4236;54.504;9.588;2023-09-07T03:49:32;102454.56;;;17.31;100.00
8398;BME280;4236;54.504;9.588;2023-09-07T03:52:00;102464.50;;;17.30;100.00
8398;BME280;4236;54.504;9.588;2023-09-07T03:54:28;102459.94;;;17.31;100.00
8398;BME280;4236;54.504;9.588;2023-09-07T03:56:58;102454.97;;;17.28;100.00
8398;BME280;4236;54.504;9.588;2023-09-07T03:59:27;102457.47;;;17.29;100.00
8398;BME280;4236;54.504;9.588;2023-09-07T04:01:55;102460.56;;;17.26;100.00
8398;BME280;4236;54.504;9.588;2023-09-07T04:04:23;102457.88;;;17.26;100.00
8398;BME280;4236;54.504;9.588;2023-09-07T04:06:52;102461.38;;;17.27;100.00
8398;BME280;4236;54.504;9.588;2023-09-07T04:09:20;102462.44;;;17.26;100.00
8398;BME280;4236;54.504;9.588;2023-09-07T04:11:47;102467.59;;;17.27;100.00
8398;BME280;4236;54.504;9.588;2023-09-07T04:14:15;102465.75;;;17.28;100.00
8398;BME280;4236;54.504;9.588;2023-09-07T04:16:43;102464.06;;;17.27;100.00
8398;BME280;4236;54.504;9.588;2023-09-07T04:19:11;102465.75;;;17.28;100.00
8398;BME280;4236;54.504;9.588;2023-09-07T04:21:39;102475.69;;;17.27;100.00
8398;BME280;4236;54.504;9.588;2023-09-07T04:24:08;102465.13;;;17.26;100.00
8398;BME280;4236;54.504;9.588;2023-09-07T04:26:37;102465.75;;;17.28;100.00
8398;BME280;4236;54.504;9.588;2023-09-07T04:29:06;102463.03;;;17.28;100.00
8398;BME280;4236;54.504;9.588;2023-09-07T04:31:34;102473.84;;;17.28;100.00
8398;BME280;4236;54.504;9.588;2023-09-07T04:34:02;102467.41;;;17.29;100.00
8398;BME280;4236;54.504;9.588;2023-09-07T04:36:30;102479.03;;;17.29;100.00
8398;BME280;4236;54.504;9.588;2023-09-07T04:38:58;102478.81;;;17.31;100.00
8398;BME280;4236;54.504;9.588;2023-09-07T04:41:27;102473.44;;;17.31;100.00
8398;BME280;4236;54.504;9.588;2023-09-07T04:43:54;102480.91;;;17.35;100.00
8398;BME280;4236;54.504;9.588;2023-09-07T04:46:24;102477.00;;;17.38;100.00
8398;BME280;4236;54.504;9.588;2023-09-07T04:48:51;102482.81;;;17.41;100.00
8398;BME280;4236;54.504;9.588;2023-09-07T04:51:19;102478.91;;;17.44;100.00
8398;BME280;4236;54.504;9.588;2023-09-07T04:53:48;102484.31;;;17.50;100.00
8398;BME280;4236;54.504;9.588;2023-09-07T04:56:18;102495.19;;;17.57;100.00
8398;BME280;4236;54.504;9.588;2023-09-07T04:58:49;102490.84;;;17.62;100.00
8398;BME280;4236;54.504;9.588;2023-09-07T05:01:17;102491.28;;;17.66;100.00
8398;BME280;4236;54.504;9.588;2023-09-07T05:03:45;102499.19;;;17.74;100.00
8398;BME280;4236;54.504;9.588;2023-09-07T05:06:12;102494.66;;;17.81;100.00
8398;BME280;4236;54.504;9.588;2023-09-07T05:08:41;102494.50;;;17.96;100.00
8398;BME280;4236;54.504;9.588;2023-09-07T05:11:09;102505.34;;;18.09;100.00
8398;BME280;4236;54.504;9.588;2023-09-07T05:13:36;102506.63;;;18.19;100.00
8398;BME280;4236;54.504;9.588;2023-09-07T05:16:05;102504.84;;;18.53;100.00
8398;BME280;4236;54.504;9.588;2023-09-07T05:18:33;102504.63;;;18.67;100.00
8398;BME280;4236;54.504;9.588;2023-09-07T05:21:10;102503.81;;;18.80;100.00
8398;BME280;4236;54.504;9.588;2023-09-07T05:23:38;102504.00;;;18.85;100.00
8398;BME280;4236;54.504;9.588;2023-09-07T05:26:06;102503.41;;;18.83;100.00
8398;BME280;4236;54.504;9.588;2023-09-07T05:28:34;102502.16;;;18.79;100.00
8398;BME280;4236;54.504;9.588;2023-09-07T05:31:01;102498.63;;;18.98;100.00
8398;BME280;4236;54.504;9.588;2023-09-07T05:33:31;102504.78;;;19.38;100.00
8398;BME280;4236;54.504;9.588;2023-09-07T05:35:59;102508.78;;;19.93;100.00
8398;BME280;4236;54.504;9.588;2023-09-07T05:38:28;102503.84;;;20.28;100.00
8398;BME280;4236;54.504;9.588;2023-09-07T05:40:59;102499.59;;;20.88;100.00
8398;BME280;4236;54.504;9.588;2023-09-07T05:43:27;102482.81;;;21.22;100.00
8398;BME280;4236;54.504;9.588;2023-09-07T05:45:54;102485.09;;;21.62;100.00
8398;BME280;4236;54.504;9.588;2023-09-07T05:48:22;102478.56;;;21.99;100.00
8398;BME280;4236;54.504;9.588;2023-09-07T05:50:51;102472.78;;;22.37;100.00
8398;BME280;4236;54.504;9.588;2023-09-07T05:53:19;102478.19;;;22.78;100.00
8398;BME280;4236;54.504;9.588;2023-09-07T05:55:47;102468.59;;;23.22;100.00
8398;BME280;4236;54.504;9.588;2023-09-07T05:58:15;102471.88;;;23.36;100.00
8398;BME280;4236;54.504;9.588;2023-09-07T06:00:43;102467.38;;;23.53;100.00
8398;BME280;4236;54.504;9.588;2023-09-07T06:03:11;102468.22;;;23.82;100.00
8398;BME280;4236;54.504;9.588;2023-09-07T06:05:39;102462.38;;;23.61;100.00
8398;BME280;4236;54.504;9.588;2023-09-07T06:08:08;102472.63;;;23.83;100.00
8398;BME280;4236;54.504;9.588;2023-09-07T06:10:35;102464.03;;;23.91;100.00
8398;BME280;4236;54.504;9.588;2023-09-07T06:13:03;102465.63;;;24.15;100.00
8398;BME280;4236;54.504;9.588;2023-09-07T06:15:31;102455.44;;;24.10;100.00
8398;BME280;4236;54.504;9.588;2023-09-07T06:17:58;102460.09;;;24.27;100.00
8398;BME280;4236;54.504;9.588;2023-09-07T06:20:26;102471.09;;;24.48;100.00
8398;BME280;4236;54.504;9.588;2023-09-07T06:22:54;102461.56;;;25.01;100.00
8398;BME280;4236;54.504;9.588;2023-09-07T06:25:23;102457.31;;;25.26;100.00
8398;BME280;4236;54.504;9.588;2023-09-07T06:27:53;102460.09;;;25.75;100.00
8398;BME280;4236;54.504;9.588;2023-09-07T06:30:21;102461.25;;;25.79;100.00
8398;BME280;4236;54.504;9.588;2023-09-07T06:32:48;102458.94;;;25.93;100.00
8398;BME280;4236;54.504;9.588;2023-09-07T06:35:17;102458.88;;;25.88;100.00
8398;BME280;4236;54.504;9.588;2023-09-07T06:37:45;102463.34;;;26.20;100.00
8398;BME280;4236;54.504;9.588;2023-09-07T06:40:13;102461.72;;;26.51;100.00
8398;BME280;4236;54.504;9.588;2023-09-07T06:42:43;102457.63;;;26.54;100.00
8398;BME280;4236;54.504;9.588;2023-09-07T06:45:11;102449.91;;;26.82;100.00
8398;BME280;4236;54.504;9.588;2023-09-07T06:47:38;102459.09;;;26.66;100.00
8398;BME280;4236;54.504;9.588;2023-09-07T06:50:06;102455.81;;;27.06;100.00
8398;BME280;4236;54.504;9.588;2023-09-07T06:52:34;102460.19;;;27.02;100.00
8398;BME280;4236;54.504;9.588;2023-09-07T06:55:02;102457.00;;;26.78;100.00
8398;BME280;4236;54.504;9.588;2023-09-07T06:57:30;102470.09;;;26.76;100.00
8398;BME280;4236;54.504;9.588;2023-09-07T06:59:59;102467.22;;;26.56;100.00
8398;BME280;4236;54.504;9.588;2023-09-07T07:02:27;102473.56;;;26.30;100.00
8398;BME280;4236;54.504;9.588;2023-09-07T07:04:55;102477.50;;;26.44;100.00
8398;BME280;4236;54.504;9.588;2023-09-07T07:07:22;102467.41;;;26.50;100.00
8398;BME280;4236;54.504;9.588;2023-09-07T07:09:50;102466.38;;;26.24;100.00
8398;BME280;4236;54.504;9.588;2023-09-07T07:12:19;102467.69;;;26.16;100.00
8398;BME280;4236;54.504;9.588;2023-09-07T07:14:47;102465.69;;;25.85;100.00
8398;BME280;4236;54.504;9.588;2023-09-07T07:17:16;102477.28;;;25.49;100.00
8398;BME280;4236;54.504;9.588;2023-09-07T07:19:44;102465.72;;;25.42;100.00
8398;BME280;4236;54.504;9.588;2023-09-07T07:22:12;102470.81;;;25.55;100.00
8398;BME280;4236;54.504;9.588;2023-09-07T07:24:40;102480.06;;;25.32;100.00
8398;BME280;4236;54.504;9.588;2023-09-07T07:27:08;102470.31;;;25.19;100.00
8398;BME280;4236;54.504;9.588;2023-09-07T07:29:37;102481.00;;;24.71;100.00
8398;BME280;4236;54.504;9.588;2023-09-07T07:32:05;102477.69;;;24.52;100.00
8398;BME280;4236;54.504;9.588;2023-09-07T07:34:34;102488.28;;;24.32;100.00
8398;BME280;4236;54.504;9.588;2023-09-07T07:37:02;102480.72;;;23.94;100.00
8398;BME280;4236;54.504;9.588;2023-09-07T07:39:30;102489.13;;;23.93;100.00
8398;BME280;4236;54.504;9.588;2023-09-07T07:41:58;102491.56;;;23.78;100.00
8398;BME280;4236;54.504;9.588;2023-09-07T07:44:25;102484.88;;;23.97;100.00
8398;BME280;4236;54.504;9.588;2023-09-07T07:46:53;102482.06;;;24.20;100.00
8398;BME280;4236;54.504;9.588;2023-09-07T07:49:21;102488.78;;;24.46;100.00
8398;BME280;4236;54.504;9.588;2023-09-07T07:51:50;102491.69;;;24.72;100.00
8398;BME280;4236;54.504;9.588;2023-09-07T07:54:21;102483.00;;;24.75;100.00
8398;BME280;4236;54.504;9.588;2023-09-07T07:56:51;102490.81;;;24.84;100.00
8398;BME280;4236;54.504;9.588;2023-09-07T07:59:19;102497.72;;;25.08;100.00
8398;BME280;4236;54.504;9.588;2023-09-07T08:01:46;102492.59;;;24.95;100.00
8398;BME280;4236;54.504;9.588;2023-09-07T08:04:14;102484.00;;;24.86;100.00
8398;BME280;4236;54.504;9.588;2023-09-07T08:06:42;102491.78;;;24.61;100.00
8398;BME280;4236;54.504;9.588;2023-09-07T08:09:11;102495.50;;;24.71;100.00
8398;BME280;4236;54.504;9.588;2023-09-07T08:11:39;102487.97;;;24.62;100.00
8398;BME280;4236;54.504;9.588;2023-09-07T08:14:07;102499.03;;;24.55;100.00
8398;BME280;4236;54.504;9.588;2023-09-07T08:16:35;102490.50;;;24.35;100.00
8398;BME280;4236;54.504;9.588;2023-09-07T08:19:03;102485.75;;;24.14;100.00
8398;BME280;4236;54.504;9.588;2023-09-07T08:21:31;102482.81;;;24.15;100.00
8398;BME280;4236;54.504;9.588;2023-09-07T08:23:59;102480.59;;;24.29;100.00
8398;BME280;4236;54.504;9.588;2023-09-07T08:26:30;102487.06;;;24.40;100.00
8398;BME280;4236;54.504;9.588;2023-09-07T08:28:58;102486.22;;;24.39;100.00
8398;BME280;4236;54.504;9.588;2023-09-07T08:31:30;102479.09;;;24.38;100.00
8398;BME280;4236;54.504;9.588;2023-09-07T08:34:00;102478.75;;;24.35;100.00
8398;BME280;4236;54.504;9.588;2023-09-07T08:36:29;102481.34;;;24.25;100.00
8398;BME280;4236;54.504;9.588;2023-09-07T08:39:00;102477.91;;;24.17;100.00
8398;BME280;4236;54.504;9.588;2023-09-07T08:41:36;102481.72;;;24.16;100.00
8398;BME280;4236;54.504;9.588;2023-09-07T08:44:26;102487.63;;;23.85;100.00
8398;BME280;4236;54.504;9.588;2023-09-07T08:46:55;102497.31;;;23.93;100.00
8398;BME280;4236;54.504;9.588;2023-09-07T08:49:23;102497.47;;;23.86;100.00
8398;BME280;4236;54.504;9.588;2023-09-07T08:51:52;102495.06;;;23.61;100.00
8398;BME280;4236;54.504;9.588;2023-09-07T08:54:22;102500.19;;;23.35;100.00
8398;BME280;4236;54.504;9.588;2023-09-07T08:56:52;102501.59;;;23.37;100.00
8398;BME280;4236;54.504;9.588;2023-09-07T08:59:20;102504.09;;;23.39;100.00
8398;BME280;4236;54.504;9.588;2023-09-07T09:01:48;102504.22;;;23.32;100.00
8398;BME280;4236;54.504;9.588;2023-09-07T09:04:15;102503.38;;;23.32;100.00
8398;BME280;4236;54.504;9.588;2023-09-07T09:06:43;102503.72;;;23.58;100.00
8398;BME280;4236;54.504;9.588;2023-09-07T09:09:22;102503.47;;;23.60;100.00
8398;BME280;4236;54.504;9.588;2023-09-07T09:11:52;102496.88;;;23.44;100.00
8398;BME280;4236;54.504;9.588;2023-09-07T09:14:20;102502.31;;;23.56;100.00
8398;BME280;4236;54.504;9.588;2023-09-07T09:16:49;102503.94;;;23.34;100.00
8398;BME280;4236;54.504;9.588;2023-09-07T09:19:18;102506.75;;;23.74;100.00
8398;BME280;4236;54.504;9.588;2023-09-07T09:21:46;102507.91;;;23.78;100.00
8398;BME280;4236;54.504;9.588;2023-09-07T09:24:15;102498.88;;;23.89;100.00
8398;BME280;4236;54.504;9.588;2023-09-07T09:26:44;102502.41;;;24.01;100.00
8398;BME280;4236;54.504;9.588;2023-09-07T09:29:13;102496.69;;;24.02;100.00
8398;BME280;4236;54.504;9.588;2023-09-07T09:31:43;102490.88;;;24.10;100.00
8398;BME280;4236;54.504;9.588;2023-09-07T09:34:12;102495.59;;;24.15;100.00
8398;BME280;4236;54.504;9.588;2023-09-07T09:36:42;102507.22;;;24.10;100.00
8398;BME280;4236;54.504;9.588;2023-09-07T09:39:10;102504.72;;;24.09;100.00
8398;BME280;4236;54.504;9.588;2023-09-07T09:41:39;102500.22;;;24.14;100.00
8398;BME280;4236;54.504;9.588;2023-09-07T09:44:07;102500.84;;;24.33;100.00
8398;BME280;4236;54.504;9.588;2023-09-07T09:46:38;102493.16;;;24.30;100.00
8398;BME280;4236;54.504;9.588;2023-09-07T09:49:08;102494.13;;;24.24;100.00
8398;BME280;4236;54.504;9.588;2023-09-07T09:51:39;102486.78;;;24.25;100.00
8398;BME280;4236;54.504;9.588;2023-09-07T09:54:10;102491.06;;;24.37;100.00
8398;BME280;4236;54.504;9.588;2023-09-07T09:56:38;102488.03;;;24.34;100.00
8398;BME280;4236;54.504;9.588;2023-09-07T09:59:06;102484.63;;;24.27;100.00
8398;BME280;4236;54.504;9.588;2023-09-07T10:01:41;102475.88;;;24.25;100.00
8398;BME280;4236;54.504;9.588;2023-09-07T10:04:12;102485.88;;;24.36;100.00
8398;BME280;4236;54.504;9.588;2023-09-07T10:06:50;102473.91;;;24.37;100.00
8398;BME280;4236;54.504;9.588;2023-09-07T10:09:19;102472.75;;;24.49;100.00
8398;BME280;4236;54.504;9.588;2023-09-07T10:11:51;102474.25;;;24.57;100.00
8398;BME280;4236;54.504;9.588;2023-09-07T10:14:20;102465.81;;;24.58;100.00
8398;BME280;4236;54.504;9.588;2023-09-07T10:16:51;102470.34;;;24.53;100.00
8398;BME280;4236;54.504;9.588;2023-09-07T10:19:24;102459.03;;;24.44;100.00
8398;BME280;4236;54.504;9.588;2023-09-07T10:21:54;102464.50;;;24.61;100.00
8398;BME280;4236;54.504;9.588;2023-09-07T10:24:25;102473.97;;;24.58;100.00
8398;BME280;4236;54.504;9.588;2023-09-07T10:27:00;102468.03;;;24.61;100.00
8398;BME280;4236;54.504;9.588;2023-09-07T10:29:28;102461.03;;;24.49;100.00
8398;BME280;4236;54.504;9.588;2023-09-07T10:32:05;102465.97;;;24.68;100.00
8398;BME280;4236;54.504;9.588;2023-09-07T10:34:36;102467.13;;;24.72;100.00
8398;BME280;4236;54.504;9.588;2023-09-07T10:37:05;102467.78;;;24.79;100.00
8398;BME280;4236;54.504;9.588;2023-09-07T10:39:35;102467.78;;;24.79;100.00
8398;BME280;4236;54.504;9.588;2023-09-07T10:42:03;102459.78;;;24.90;100.00
8398;BME280;4236;54.504;9.588;2023-09-07T10:44:31;102452.25;;;24.97;100.00
8398;BME280;4236;54.504;9.588;2023-09-07T10:47:00;102454.41;;;24.95;100.00
8398;BME280;4236;54.504;9.588;2023-09-07T10:49:31;102459.84;;;24.95;100.00
8398;BME280;4236;54.504;9.588;2023-09-07T10:51:58;102471.94;;;24.99;100.00
8398;BME280;4236;54.504;9.588;2023-09-07T10:54:26;102457.63;;;24.92;100.00
8398;BME280;4236;54.504;9.588;2023-09-07T10:56:54;102463.69;;;24.94;100.00
8398;BME280;4236;54.504;9.588;2023-09-07T10:59:27;102451.50;;;25.01;100.00
8398;BME280;4236;54.504;9.588;2023-09-07T11:02:04;102448.59;;;24.91;100.00
8398;BME280;4236;54.504;9.588;2023-09-07T11:04:32;102435.47;;;24.88;100.00
8398;BME280;4236;54.504;9.588;2023-09-07T11:07:00;102440.56;;;25.01;100.00
8398;BME280;4236;54.504;9.588;2023-09-07T11:09:29;102436.88;;;24.91;100.00
8398;BME280;4236;54.504;9.588;2023-09-07T11:12:03;102435.38;;;25.00;100.00
8398;BME280;4236;54.504;9.588;2023-09-07T11:14:31;102435.81;;;25.13;100.00
8398;BME280;4236;54.504;9.588;2023-09-07T11:17:00;102431.75;;;25.16;100.00
8398;BME280;4236;54.504;9.588;2023-09-07T11:19:32;102433.16;;;25.18;100.00
8398;BME280;4236;54.504;9.588;2023-09-07T11:22:01;102433.44;;;25.17;100.00
8398;BME280;4236;54.504;9.588;2023-09-07T11:24:31;102441.41;;;25.02;100.00
8398;BME280;4236;54.504;9.588;2023-09-07T11:27:00;102432.72;;;25.05;100.00
8398;BME280;4236;54.504;9.588;2023-09-07T11:29:31;102434.28;;;25.01;100.00
8398;BME280;4236;54.504;9.588;2023-09-07T11:32:05;102428.72;;;25.12;100.00
8398;BME280;4236;54.504;9.588;2023-09-07T11:34:35;102425.19;;;24.95;100.00
8398;BME280;4236;54.504;9.588;2023-09-07T11:37:03;102421.03;;;25.09;100.00
8398;BME280;4236;54.504;9.588;2023-09-07T11:39:31;102423.47;;;25.06;100.00
8398;BME280;4236;54.504;9.588;2023-09-07T11:41:58;102421.41;;;24.96;100.00
8398;BME280;4236;54.504;9.588;2023-09-07T11:44:26;102427.25;;;25.05;100.00
8398;BME280;4236;54.504;9.588;2023-09-07T11:46:54;102432.50;;;24.90;100.00
8398;BME280;4236;54.504;9.588;2023-09-07T11:49:21;102425.47;;;24.94;100.00
8398;BME280;4236;54.504;9.588;2023-09-07T11:51:51;102422.09;;;24.87;100.00
8398;BME280;4236;54.504;9.588;2023-09-07T11:54:19;102423.97;;;24.86;100.00
8398;BME280;4236;54.504;9.588;2023-09-07T11:56:46;102421.78;;;25.05;100.00
8398;BME280;4236;54.504;9.588;2023-09-07T11:59:14;102414.50;;;25.10;100.00
8398;BME280;4236;54.504;9.588;2023-09-07T12:01:43;102415.78;;;25.03;100.00
8398;BME280;4236;54.504;9.588;2023-09-07T12:04:11;102411.41;;;25.23;100.00
8398;BME280;4236;54.504;9.588;2023-09-07T12:06:39;102407.84;;;25.23;100.00
8398;BME280;4236;54.504;9.588;2023-09-07T12:09:08;102409.91;;;25.16;100.00
8398;BME280;4236;54.504;9.588;2023-09-07T12:11:36;102414.81;;;25.14;100.00
8398;BME280;4236;54.504;9.588;2023-09-07T12:14:04;102402.63;;;25.21;100.00
8398;BME280;4236;54.504;9.588;2023-09-07T12:16:32;102397.34;;;25.15;100.00
8398;BME280;4236;54.504;9.588;2023-09-07T12:19:00;102387.84;;;25.17;100.00
8398;BME280;4236;54.504;9.588;2023-09-07T12:21:28;102396.03;;;25.17;100.00
8398;BME280;4236;54.504;9.588;2023-09-07T12:23:56;102404.66;;;25.31;100.00
8398;BME280;4236;54.504;9.588;2023-09-07T12:26:25;102402.81;;;25.37;100.00
8398;BME280;4236;54.504;9.588;2023-09-07T12:28:53;102398.13;;;25.32;100.00
8398;BME280;4236;54.504;9.588;2023-09-07T12:31:20;102399.50;;;25.35;100.00
8398;BME280;4236;54.504;9.588;2023-09-07T12:33:48;102385.03;;;25.56;100.00
8398;BME280;4236;54.504;9.588;2023-09-07T12:36:16;102389.28;;;25.47;100.00
8398;BME280;4236;54.504;9.588;2023-09-07T12:38:43;102382.00;;;25.52;100.00
8398;BME280;4236;54.504;9.588;2023-09-07T12:41:12;102381.03;;;25.42;100.00
8398;BME280;4236;54.504;9.588;2023-09-07T12:43:41;102373.47;;;25.49;100.00
8398;BME280;4236;54.504;9.588;2023-09-07T12:46:10;102385.41;;;25.43;100.00
8398;BME280;4236;54.504;9.588;2023-09-07T12:48:37;102383.41;;;25.11;100.00
8398;BME280;4236;54.504;9.588;2023-09-07T12:51:05;102376.78;;;25.07;100.00
8398;BME280;4236;54.504;9.588;2023-09-07T12:53:33;102376.78;;;25.07;100.00
8398;BME280;4236;54.504;9.588;2023-09-07T12:56:01;102373.03;;;25.13;100.00
8398;BME280;4236;54.504;9.588;2023-09-07T12:58:30;102370.50;;;25.07;100.00
8398;BME280;4236;54.504;9.588;2023-09-07T13:00:59;102373.09;;;25.18;100.00
8398;BME280;4236;54.504;9.588;2023-09-07T13:03:26;102362.16;;;25.18;100.00
8398;BME280;4236;54.504;9.588;2023-09-07T13:05:54;102364.78;;;25.08;100.00
8398;BME280;4236;54.504;9.588;2023-09-07T13:08:22;102355.25;;;24.89;100.00
8398;BME280;4236;54.504;9.588;2023-09-07T13:10:50;102359.25;;;25.03;100.00
8398;BME280;4236;54.504;9.588;2023-09-07T13:13:18;102361.47;;;25.06;100.00
8398;BME280;4236;54.504;9.588;2023-09-07T13:15:48;102362.50;;;25.00;100.00
8398;BME280;4236;54.504;9.588;2023-09-07T13:18:17;102361.22;;;25.08;100.00
8398;BME280;4236;54.504;9.588;2023-09-07T13:20:45;102354.06;;;25.02;100.00
8398;BME280;4236;54.504;9.588;2023-09-07T13:23:14;102360.25;;;24.97;100.00
8398;BME280;4236;54.504;9.588;2023-09-07T13:25:42;102360.66;;;25.06;100.00
8398;BME280;4236;54.504;9.588;2023-09-07T13:28:10;102364.31;;;24.95;100.00
8398;BME280;4236;54.504;9.588;2023-09-07T13:30:37;102346.53;;;25.09;100.00
8398;BME280;4236;54.504;9.588;2023-09-07T13:33:05;102348.78;;;25.17;100.00
8398;BME280;4236;54.504;9.588;2023-09-07T13:35:36;102351.00;;;25.20;100.00
8398;BME280;4236;54.504;9.588;2023-09-07T13:38:03;102347.44;;;25.19;100.00
8398;BME280;4236;54.504;9.588;2023-09-07T13:40:31;102340.69;;;25.27;100.00
8398;BME280;4236;54.504;9.588;2023-09-07T13:42:59;102337.47;;;25.30;100.00
8398;BME280;4236;54.504;9.588;2023-09-07T13:45:27;102335.03;;;25.33;100.00
8398;BME280;4236;54.504;9.588;2023-09-07T13:47:55;102337.03;;;25.38;100.00
8398;BME280;4236;54.504;9.588;2023-09-07T13:50:23;102332.75;;;25.47;100.00
8398;BME280;4236;54.504;9.588;2023-09-07T13:52:53;102322.91;;;25.46;100.00
8398;BME280;4236;54.504;9.588;2023-09-07T13:55:20;102330.97;;;25.36;100.00
8398;BME280;4236;54.504;9.588;2023-09-07T13:57:48;102331.81;;;25.37;100.00
8398;BME280;4236;54.504;9.588;2023-09-07T14:00:16;102336.19;;;25.38;100.00
8398;BME280;4236;54.504;9.588;2023-09-07T14:02:44;102343.75;;;25.52;100.00
8398;BME280;4236;54.504;9.588;2023-09-07T14:05:11;102337.25;;;25.37;100.00
8398;BME280;4236;54.504;9.588;2023-09-07T14:07:39;102340.75;;;25.54;100.00
8398;BME280;4236;54.504;9.588;2023-09-07T14:10:09;102341.53;;;25.49;100.00
8398;BME280;4236;54.504;9.588;2023-09-07T14:12:36;102341.47;;;25.44;100.00
8398;BME280;4236;54.504;9.588;2023-09-07T14:15:05;102340.81;;;25.37;100.00
8398;BME280;4236;54.504;9.588;2023-09-07T14:17:33;102340.47;;;25.28;100.00
8398;BME280;4236;54.504;9.588;2023-09-07T14:20:00;102339.50;;;25.18;100.00
8398;BME280;4236;54.504;9.588;2023-09-07T14:22:28;102323.13;;;25.18;100.00
8398;BME280;4236;54.504;9.588;2023-09-07T14:24:56;102334.72;;;25.30;100.00
8398;BME280;4236;54.504;9.588;2023-09-07T14:27:25;102338.38;;;25.14;100.00
8398;BME280;4236;54.504;9.588;2023-09-07T14:29:53;102329.69;;;25.17;100.00
8398;BME280;4236;54.504;9.588;2023-09-07T14:32:21;102350.94;;;25.15;100.00
8398;BME280;4236;54.504;9.588;2023-09-07T14:34:48;102341.84;;;25.09;100.00
8398;BME280;4236;54.504;9.588;2023-09-07T14:37:16;102334.25;;;25.11;100.00
8398;BME280;4236;54.504;9.588;2023-09-07T14:39:44;102335.06;;;25.12;100.00
8398;BME280;4236;54.504;9.588;2023-09-07T14:42:14;102327.03;;;25.27;100.00
8398;BME280;4236;54.504;9.588;2023-09-07T14:44:45;102324.25;;;25.22;100.00
8398;BME280;4236;54.504;9.588;2023-09-07T14:47:13;102315.56;;;25.25;100.00
8398;BME280;4236;54.504;9.588;2023-09-07T14:49:41;102327.00;;;25.00;100.00
8398;BME280;4236;54.504;9.588;2023-09-07T14:52:08;102323.84;;;25.08;100.00
8398;BME280;4236;54.504;9.588;2023-09-07T14:54:37;102327.47;;;25.14;100.00
8398;BME280;4236;54.504;9.588;2023-09-07T14:57:06;102328.44;;;25.03;100.00
8398;BME280;4236;54.504;9.588;2023-09-07T14:59:34;102325.19;;;25.06;100.00
8398;BME280;4236;54.504;9.588;2023-09-07T15:02:07;102335.69;;;24.97;100.00
8398;BME280;4236;54.504;9.588;2023-09-07T15:04:35;102326.63;;;24.92;100.00
8398;BME280;4236;54.504;9.588;2023-09-07T15:07:03;102320.41;;;24.96;100.00
8398;BME280;4236;54.504;9.588;2023-09-07T15:09:30;102322.47;;;25.06;100.00